createdAt,value
2023-04-18T00:00:41.888Z,1012.83
2023-04-18T00:01:41.906Z,1012.82
2023-04-18T00:02:41.985Z,1012.79
2023-04-18T00:03:42.112Z,1012.85
2023-04-18T00:04:41.974Z,1012.78
2023-04-18T00:05:41.820Z,1012.83
2023-04-18T00:06:41.802Z,1012.81
2023-04-18T00:07:41.780Z,1012.86
2023-04-18T00:08:41.815Z,1012.78
2023-04-18T00:09:41.853Z,1012.79
2023-04-18T00:10:41.738Z,1012.76
2023-04-18T00:11:41.785Z,1012.79
2023-04-18T00:12:41.720Z,1012.77
2023-04-18T00:13:41.710Z,1012.79
2023-04-18T00:14:41.723Z,1012.83
2023-04-18T00:15:41.684Z,1012.75
2023-04-18T00:16:41.687Z,1012.76
2023-04-18T00:17:41.751Z,1012.82
2023-04-18T00:18:41.652Z,1012.82
2023-04-18T00:19:41.658Z,1012.79
2023-04-18T00:20:41.625Z,1012.81
2023-04-18T00:21:41.653Z,1012.83
2023-04-18T00:22:41.619Z,1012.76
2023-04-18T00:23:41.607Z,1012.74
2023-04-18T00:24:41.563Z,1012.74
2023-04-18T00:25:41.582Z,1012.76
2023-04-18T00:26:41.541Z,1012.76
2023-04-18T00:27:41.546Z,1012.70
2023-04-18T00:28:41.547Z,1012.75
2023-04-18T00:29:41.517Z,1012.77
2023-04-18T00:30:41.585Z,1012.71
2023-04-18T00:31:41.501Z,1012.79
2023-04-18T00:32:41.531Z,1012.76
2023-04-18T00:33:41.435Z,1012.78
2023-04-18T00:34:41.436Z,1012.76
2023-04-18T00:35:41.420Z,1012.73
2023-04-18T00:36:41.433Z,1012.80
2023-04-18T00:37:41.436Z,1012.79
2023-04-18T00:38:41.391Z,1012.75
2023-04-18T00:39:41.381Z,1012.79
2023-04-18T00:40:41.489Z,1012.78
2023-04-18T00:41:41.323Z,1012.81
2023-04-18T00:42:41.338Z,1012.76
2023-04-18T00:43:41.309Z,1012.82
2023-04-18T00:44:41.319Z,1012.81
2023-04-18T00:45:41.328Z,1012.76
2023-04-18T00:46:41.364Z,1012.77
2023-04-18T00:47:41.388Z,1012.75
2023-04-18T00:48:41.260Z,1012.80
2023-04-18T00:49:41.233Z,1012.77
2023-04-18T00:50:41.226Z,1012.80
2023-04-18T00:51:41.238Z,1012.81
2023-04-18T00:52:41.251Z,1012.77
2023-04-18T00:53:41.200Z,1012.76
2023-04-18T00:54:41.182Z,1012.72
2023-04-18T00:55:41.175Z,1012.68
2023-04-18T00:56:41.158Z,1012.73
2023-04-18T00:57:41.178Z,1012.77
2023-04-18T00:58:41.134Z,1012.85
2023-04-18T00:59:41.109Z,1012.79
2023-04-18T01:00:41.098Z,1012.72
2023-04-18T01:01:41.094Z,1012.72
2023-04-18T01:02:41.199Z,1012.77
2023-04-18T01:03:41.378Z,1012.77
2023-04-18T01:04:41.085Z,1012.74
2023-04-18T01:05:41.031Z,1012.75
2023-04-18T01:06:41.035Z,1012.74
2023-04-18T01:07:41.006Z,1012.74
2023-04-18T01:08:41.052Z,1012.72
2023-04-18T01:09:40.991Z,1012.74
2023-04-18T01:10:40.982Z,1012.78
2023-04-18T01:11:40.966Z,1012.70
2023-04-18T01:12:40.955Z,1012.76
2023-04-18T01:13:40.937Z,1012.66
2023-04-18T01:14:40.933Z,1012.72
2023-04-18T01:15:40.916Z,1012.68
2023-04-18T01:16:40.890Z,1012.69
2023-04-18T01:17:40.921Z,1012.72
2023-04-18T01:18:40.858Z,1012.69
2023-04-18T01:19:40.864Z,1012.68
2023-04-18T01:20:40.847Z,1012.60
2023-04-18T01:21:40.828Z,1012.61
2023-04-18T01:22:40.802Z,1012.62
2023-04-18T01:23:40.863Z,1012.56
2023-04-18T01:24:40.810Z,1012.56
2023-04-18T01:25:40.785Z,1012.63
2023-04-18T01:26:40.777Z,1012.52
2023-04-18T01:27:40.754Z,1012.57
2023-04-18T01:28:40.727Z,1012.51
2023-04-18T01:29:40.713Z,1012.51
2023-04-18T01:30:40.731Z,1012.54
2023-04-18T01:31:40.720Z,1012.52
2023-04-18T01:32:40.771Z,1012.53
2023-04-18T01:33:40.655Z,1012.46
2023-04-18T01:34:40.642Z,1012.57
2023-04-18T01:35:40.656Z,1012.53
2023-04-18T01:36:40.613Z,1012.52
2023-04-18T01:37:40.622Z,1012.53
2023-04-18T01:38:40.623Z,1012.57
2023-04-18T01:39:40.574Z,1012.52
2023-04-18T01:40:40.605Z,1012.44
2023-04-18T01:41:40.562Z,1012.50
2023-04-18T01:42:40.534Z,1012.43
2023-04-18T01:43:40.532Z,1012.52
2023-04-18T01:44:40.507Z,1012.57
2023-04-18T01:45:40.493Z,1012.54
2023-04-18T01:46:40.567Z,1012.55
2023-04-18T01:47:40.506Z,1012.50
2023-04-18T01:48:40.459Z,1012.50
2023-04-18T01:49:40.492Z,1012.53
2023-04-18T01:50:40.466Z,1012.52
2023-04-18T01:51:40.440Z,1012.47
2023-04-18T01:52:40.459Z,1012.45
2023-04-18T01:53:40.395Z,1012.42
2023-04-18T01:54:40.387Z,1012.47
2023-04-18T01:55:40.391Z,1012.49
2023-04-18T01:56:40.354Z,1012.47
2023-04-18T01:57:40.505Z,1012.38
2023-04-18T01:58:40.352Z,1012.51
2023-04-18T01:59:40.330Z,1012.52
2023-04-18T02:00:40.345Z,1012.46
2023-04-18T02:01:40.300Z,1012.57
2023-04-18T02:02:40.427Z,1012.43
2023-04-18T02:03:40.823Z,1012.47
2023-04-18T02:04:40.270Z,1012.49
2023-04-18T02:05:40.271Z,1012.47
2023-04-18T02:06:40.250Z,1012.49
2023-04-18T02:07:40.210Z,1012.48
2023-04-18T02:08:40.214Z,1012.54
2023-04-18T02:09:40.417Z,1012.45
2023-04-18T02:10:40.180Z,1012.46
2023-04-18T02:11:40.169Z,1012.43
2023-04-18T02:12:40.149Z,1012.49
2023-04-18T02:13:40.149Z,1012.47
2023-04-18T02:14:40.127Z,1012.49
2023-04-18T02:15:40.123Z,1012.44
2023-04-18T02:16:40.164Z,1012.42
2023-04-18T02:17:40.110Z,1012.43
2023-04-18T02:18:40.084Z,1012.44
2023-04-18T02:19:40.089Z,1012.43
2023-04-18T02:20:40.059Z,1012.43
2023-04-18T02:21:40.055Z,1012.38
2023-04-18T02:22:40.029Z,1012.40
2023-04-18T02:23:40.006Z,1012.39
2023-04-18T02:24:39.998Z,1012.38
2023-04-18T02:25:40.043Z,1012.42
2023-04-18T02:26:39.966Z,1012.42
2023-04-18T02:27:39.952Z,1012.41
2023-04-18T02:28:39.975Z,1012.41
2023-04-18T02:29:39.927Z,1012.37
2023-04-18T02:30:39.952Z,1012.41
2023-04-18T02:31:39.938Z,1012.39
2023-04-18T02:32:39.973Z,1012.36
2023-04-18T02:33:39.865Z,1012.41
2023-04-18T02:34:39.862Z,1012.35
2023-04-18T02:35:39.838Z,1012.34
2023-04-18T02:36:39.845Z,1012.38
2023-04-18T02:37:39.812Z,1012.34
2023-04-18T02:38:39.799Z,1012.41
2023-04-18T02:39:39.790Z,1012.41
2023-04-18T02:40:39.782Z,1012.40
2023-04-18T02:41:39.826Z,1012.40
2023-04-18T02:42:39.777Z,1012.42
2023-04-18T02:43:39.740Z,1012.39
2023-04-18T02:44:39.741Z,1012.45
2023-04-18T02:45:39.740Z,1012.47
2023-04-18T02:46:39.700Z,1012.48
2023-04-18T02:47:51.055Z,1012.45
2023-04-18T02:48:40.674Z,1012.46
2023-04-18T02:49:39.658Z,1012.46
2023-04-18T02:50:39.642Z,1012.46
2023-04-18T02:51:39.633Z,1012.46
2023-04-18T02:52:39.623Z,1012.43
2023-04-18T02:53:39.630Z,1012.43
2023-04-18T02:54:39.630Z,1012.40
2023-04-18T02:55:39.585Z,1012.42
2023-04-18T02:56:39.564Z,1012.41
2023-04-18T02:57:39.547Z,1012.47
2023-04-18T02:58:39.563Z,1012.50
2023-04-18T02:59:39.538Z,1012.36
2023-04-18T03:00:39.512Z,1012.43
2023-04-18T03:01:39.536Z,1012.38
2023-04-18T03:02:39.542Z,1012.44
2023-04-18T03:03:39.532Z,1012.39
2023-04-18T03:04:39.486Z,1012.42
2023-04-18T03:05:39.493Z,1012.34
2023-04-18T03:06:39.434Z,1012.33
2023-04-18T03:07:39.441Z,1012.31
2023-04-18T03:08:39.403Z,1012.36
2023-04-18T03:09:39.421Z,1012.31
2023-04-18T03:10:39.438Z,1012.31
2023-04-18T03:11:39.364Z,1012.38
2023-04-18T03:12:39.364Z,1012.37
2023-04-18T03:13:39.346Z,1012.43
2023-04-18T03:14:39.359Z,1012.36
2023-04-18T03:15:39.397Z,1012.39
2023-04-18T03:16:39.298Z,1012.43
2023-04-18T03:17:39.320Z,1012.41
2023-04-18T03:18:39.277Z,1012.42
2023-04-18T03:19:39.262Z,1012.37
2023-04-18T03:20:39.245Z,1012.35
2023-04-18T03:21:39.256Z,1012.39
2023-04-18T03:22:39.222Z,1012.32
2023-04-18T03:23:39.202Z,1012.42
2023-04-18T03:24:39.214Z,1012.52
2023-04-18T03:25:39.198Z,1012.39
2023-04-18T03:26:39.178Z,1012.41
2023-04-18T03:27:39.169Z,1012.41
2023-04-18T03:28:39.149Z,1012.41
2023-04-18T03:29:39.136Z,1012.39
2023-04-18T03:30:39.138Z,1012.38
2023-04-18T03:31:39.146Z,1012.40
2023-04-18T03:32:39.138Z,1012.45
2023-04-18T03:33:39.083Z,1012.44
2023-04-18T03:34:39.080Z,1012.36
2023-04-18T03:35:39.077Z,1012.43
2023-04-18T03:36:39.038Z,1012.43
2023-04-18T03:37:39.032Z,1012.50
2023-04-18T03:38:39.031Z,1012.50
2023-04-18T03:39:38.998Z,1012.49
2023-04-18T03:40:38.982Z,1012.42
2023-04-18T03:41:38.974Z,1012.46
2023-04-18T03:42:38.963Z,1012.47
2023-04-18T03:43:38.976Z,1012.51
2023-04-18T03:44:38.943Z,1012.47
2023-04-18T03:45:38.947Z,1012.47
2023-04-18T03:46:38.964Z,1012.40
2023-04-18T03:47:38.936Z,1012.49
2023-04-18T03:48:38.910Z,1012.51
2023-04-18T03:49:38.865Z,1012.45
2023-04-18T03:50:38.888Z,1012.47
2023-04-18T03:51:38.850Z,1012.47
2023-04-18T03:52:38.865Z,1012.61
2023-04-18T03:53:38.811Z,1012.47
2023-04-18T03:54:38.809Z,1012.62
2023-04-18T03:55:38.784Z,1012.54
2023-04-18T03:56:38.777Z,1012.60
2023-04-18T03:57:40.240Z,1012.61
2023-04-18T03:58:38.750Z,1012.62
2023-04-18T03:59:38.736Z,1012.61
2023-04-18T04:00:38.732Z,1012.67
2023-04-18T04:01:38.737Z,1012.65
2023-04-18T04:02:38.779Z,1012.62
2023-04-18T04:03:38.880Z,1012.60
2023-04-18T04:04:38.689Z,1012.68
2023-04-18T04:05:38.697Z,1012.62
2023-04-18T04:06:38.655Z,1012.67
2023-04-18T04:07:38.639Z,1012.62
2023-04-18T04:08:38.621Z,1012.63
2023-04-18T04:09:38.615Z,1012.65
2023-04-18T04:10:38.601Z,1012.69
2023-04-18T04:11:38.614Z,1012.64
2023-04-18T04:12:38.589Z,1012.73
2023-04-18T04:13:38.560Z,1012.70
2023-04-18T04:14:38.542Z,1012.69
2023-04-18T04:15:38.596Z,1012.66
2023-04-18T04:16:38.639Z,1012.72
2023-04-18T04:17:38.602Z,1012.68
2023-04-18T04:18:38.553Z,1012.68
2023-04-18T04:19:38.495Z,1012.71
2023-04-18T04:20:38.474Z,1012.68
2023-04-18T04:21:38.477Z,1012.79
2023-04-18T04:22:38.443Z,1012.78
2023-04-18T04:23:38.422Z,1012.69
2023-04-18T04:24:38.419Z,1012.81
2023-04-18T04:25:38.414Z,1012.81
2023-04-18T04:26:38.464Z,1012.78
2023-04-18T04:27:38.377Z,1012.80
2023-04-18T04:28:38.370Z,1012.77
2023-04-18T04:29:38.375Z,1012.80
2023-04-18T04:30:38.375Z,1012.89
2023-04-18T04:31:38.366Z,1012.77
2023-04-18T04:32:38.328Z,1012.76
2023-04-18T04:33:38.294Z,1012.89
2023-04-18T04:34:38.278Z,1012.82
2023-04-18T04:35:38.266Z,1012.84
2023-04-18T04:36:38.309Z,1012.85
2023-04-18T04:37:38.238Z,1012.85
2023-04-18T04:38:38.289Z,1012.79
2023-04-18T04:39:38.219Z,1012.87
2023-04-18T04:40:38.200Z,1012.84
2023-04-18T04:41:38.215Z,1012.95
2023-04-18T04:42:38.184Z,1012.87
2023-04-18T04:43:38.174Z,1012.90
2023-04-18T04:44:38.178Z,1012.93
2023-04-18T04:45:38.139Z,1012.97
2023-04-18T04:46:38.138Z,1012.99
2023-04-18T04:47:38.168Z,1013.00
2023-04-18T04:48:38.095Z,1013.02
2023-04-18T04:49:38.091Z,1013.04
2023-04-18T04:50:38.075Z,1012.98
2023-04-18T04:51:38.063Z,1013.05
2023-04-18T04:52:38.077Z,1013.08
2023-04-18T04:53:38.029Z,1013.07
2023-04-18T04:54:38.025Z,1013.08
2023-04-18T04:55:38.009Z,1013.05
2023-04-18T04:56:37.989Z,1013.03
2023-04-18T04:57:37.991Z,1013.08
2023-04-18T04:58:38.014Z,1013.04
2023-04-18T04:59:37.953Z,1013.09
2023-04-18T05:00:37.944Z,1013.05
2023-04-18T05:01:37.967Z,1013.09
2023-04-18T05:02:38.068Z,1013.08
2023-04-18T05:03:38.110Z,1013.14
2023-04-18T05:04:38.069Z,1013.08
2023-04-18T05:05:37.872Z,1013.06
2023-04-18T05:06:40.032Z,1013.05
2023-04-18T05:07:37.842Z,1013.07
2023-04-18T05:08:37.833Z,1013.09
2023-04-18T05:09:37.838Z,1013.09
2023-04-18T05:10:37.827Z,1013.12
2023-04-18T05:11:37.808Z,1013.10
2023-04-18T05:12:37.786Z,1013.07
2023-04-18T05:13:37.764Z,1013.06
2023-04-18T05:14:37.751Z,1013.06
2023-04-18T05:15:37.755Z,1013.07
2023-04-18T05:16:37.777Z,1013.05
2023-04-18T05:17:37.790Z,1013.09
2023-04-18T05:18:37.695Z,1013.12
2023-04-18T05:19:37.690Z,1013.06
2023-04-18T05:20:37.678Z,1013.03
2023-04-18T05:21:37.670Z,1013.06
2023-04-18T05:22:37.648Z,1013.13
2023-04-18T05:23:37.653Z,1013.05
2023-04-18T05:24:37.624Z,1013.10
2023-04-18T05:25:37.670Z,1013.17
2023-04-18T05:26:37.637Z,1013.09
2023-04-18T05:27:37.603Z,1013.11
2023-04-18T05:28:37.574Z,1013.12
2023-04-18T05:29:37.594Z,1013.05
2023-04-18T05:30:37.574Z,1013.12
2023-04-18T05:31:37.673Z,1013.13
2023-04-18T05:32:37.545Z,1013.02
2023-04-18T05:33:37.536Z,1013.14
2023-04-18T05:34:38.816Z,1013.15
2023-04-18T05:35:37.496Z,1013.11
2023-04-18T05:36:37.460Z,1013.10
2023-04-18T05:37:37.477Z,1013.24
2023-04-18T05:38:37.452Z,1013.21
2023-04-18T05:39:37.432Z,1013.14
2023-04-18T05:40:37.434Z,1013.29
2023-04-18T05:41:37.401Z,1013.32
2023-04-18T05:42:37.426Z,1013.31
2023-04-18T05:43:37.387Z,1013.25
2023-04-18T05:44:37.361Z,1013.32
2023-04-18T05:45:37.351Z,1013.32
2023-04-18T05:46:37.396Z,1013.31
2023-04-18T05:47:37.407Z,1013.31
2023-04-18T05:48:37.333Z,1013.33
2023-04-18T05:49:37.332Z,1013.39
2023-04-18T05:50:37.300Z,1013.35
2023-04-18T05:51:37.264Z,1013.32
2023-04-18T05:52:37.263Z,1013.39
2023-04-18T05:53:37.271Z,1013.33
2023-04-18T05:54:37.239Z,1013.38
2023-04-18T05:55:37.219Z,1013.36
2023-04-18T05:56:37.208Z,1013.40
2023-04-18T05:57:37.195Z,1013.32
2023-04-18T05:58:37.223Z,1013.42
2023-04-18T05:59:37.188Z,1013.40
2023-04-18T06:00:37.162Z,1013.37
2023-04-18T06:01:37.146Z,1013.41
2023-04-18T06:02:37.248Z,1013.42
2023-04-18T06:03:37.272Z,1013.42
2023-04-18T06:04:37.213Z,1013.54
2023-04-18T06:05:37.290Z,1013.42
2023-04-18T06:06:37.070Z,1013.45
2023-04-18T06:07:37.065Z,1013.42
2023-04-18T06:08:37.044Z,1013.39
2023-04-18T06:09:37.065Z,1013.46
2023-04-18T06:10:38.968Z,1013.50
2023-04-18T06:11:36.998Z,1013.50
2023-04-18T06:12:36.999Z,1013.49
2023-04-18T06:13:36.983Z,1013.52
2023-04-18T06:14:36.992Z,1013.47
2023-04-18T06:15:36.958Z,1013.50
2023-04-18T06:16:37.020Z,1013.54
2023-04-18T06:17:36.986Z,1013.47
2023-04-18T06:18:36.923Z,1013.50
2023-04-18T06:19:36.911Z,1013.56
2023-04-18T06:20:36.890Z,1013.51
2023-04-18T06:21:36.925Z,1013.55
2023-04-18T06:22:36.860Z,1013.56
2023-04-18T06:23:36.863Z,1013.53
2023-04-18T06:24:36.882Z,1013.55
2023-04-18T06:25:36.825Z,1013.63
2023-04-18T06:26:36.837Z,1013.64
2023-04-18T06:27:36.816Z,1013.67
2023-04-18T06:28:36.790Z,1013.66
2023-04-18T06:29:37.906Z,1013.61
2023-04-18T06:30:36.769Z,1013.61
2023-04-18T06:31:36.768Z,1013.61
2023-04-18T06:32:36.817Z,1013.61
2023-04-18T06:33:36.726Z,1013.65
2023-04-18T06:34:36.705Z,1013.72
2023-04-18T06:35:36.697Z,1013.72
2023-04-18T06:36:36.669Z,1013.67
2023-04-18T06:37:36.675Z,1013.72
2023-04-18T06:38:36.650Z,1013.65
2023-04-18T06:39:36.642Z,1013.64
2023-04-18T06:40:36.626Z,1013.62
2023-04-18T06:41:36.633Z,1013.64
2023-04-18T06:42:36.623Z,1013.66
2023-04-18T06:43:36.585Z,1013.64
2023-04-18T06:44:36.575Z,1013.59
2023-04-18T06:45:36.621Z,1013.60
2023-04-18T06:46:36.553Z,1013.63
2023-04-18T06:47:36.551Z,1013.62
2023-04-18T06:48:36.543Z,1013.66
2023-04-18T06:49:36.501Z,1013.68
2023-04-18T06:50:36.496Z,1013.68
2023-04-18T06:51:36.470Z,1013.61
2023-04-18T06:52:36.471Z,1013.70
2023-04-18T06:53:36.473Z,1013.70
2023-04-18T06:54:36.458Z,1013.72
2023-04-18T06:55:36.428Z,1013.72
2023-04-18T06:56:36.695Z,1013.70
2023-04-18T06:57:36.400Z,1013.67
2023-04-18T06:58:36.404Z,1013.57
2023-04-18T06:59:36.368Z,1013.67
2023-04-18T07:00:36.399Z,1013.65
2023-04-18T07:01:36.371Z,1013.62
2023-04-18T07:02:36.481Z,1013.66
2023-04-18T07:03:36.542Z,1013.63
2023-04-18T07:04:36.347Z,1013.70
2023-04-18T07:05:36.297Z,1013.71
2023-04-18T07:06:36.290Z,1013.61
2023-04-18T07:07:36.269Z,1013.66
2023-04-18T07:08:36.393Z,1013.78
2023-04-18T07:09:36.261Z,1013.67
2023-04-18T07:10:36.232Z,1013.70
2023-04-18T07:11:36.221Z,1013.68
2023-04-18T07:12:36.203Z,1013.66
2023-04-18T07:13:36.188Z,1013.65
2023-04-18T07:14:36.196Z,1013.66
2023-04-18T07:15:36.168Z,1013.70
2023-04-18T07:16:36.160Z,1013.77
2023-04-18T07:17:36.185Z,1013.68
2023-04-18T07:18:38.370Z,1013.71
2023-04-18T07:19:36.117Z,1013.78
2023-04-18T07:20:36.132Z,1013.74
2023-04-18T07:21:36.078Z,1013.71
2023-04-18T07:22:36.073Z,1013.66
2023-04-18T07:23:36.134Z,1013.79
2023-04-18T07:24:36.051Z,1013.81
2023-04-18T07:25:36.028Z,1013.76
2023-04-18T07:26:36.015Z,1013.84
2023-04-18T07:27:36.010Z,1013.75
2023-04-18T07:28:36.012Z,1013.79
2023-04-18T07:29:35.971Z,1013.80
2023-04-18T07:30:35.972Z,1013.82
2023-04-18T07:31:36.144Z,1013.83
2023-04-18T07:32:36.013Z,1013.83
2023-04-18T07:33:35.920Z,1013.85
2023-04-18T07:34:35.906Z,1013.93
2023-04-18T07:35:35.896Z,1013.82
2023-04-18T07:36:35.909Z,1013.82
2023-04-18T07:37:35.896Z,1013.81
2023-04-18T07:38:35.864Z,1013.85
2023-04-18T07:39:36.019Z,1013.87
2023-04-18T07:40:35.826Z,1013.86
2023-04-18T07:41:35.822Z,1013.87
2023-04-18T07:42:35.809Z,1013.92
2023-04-18T07:43:35.799Z,1013.89
2023-04-18T07:44:35.815Z,1013.89
2023-04-18T07:45:35.768Z,1013.90
2023-04-18T07:46:35.777Z,1013.86
2023-04-18T07:47:35.771Z,1013.90
2023-04-18T07:48:35.742Z,1013.88
2023-04-18T07:49:35.706Z,1013.98
2023-04-18T07:50:35.715Z,1013.91
2023-04-18T07:51:35.720Z,1013.91
2023-04-18T07:52:37.363Z,1013.96
2023-04-18T07:53:35.660Z,1013.88
2023-04-18T07:54:35.671Z,1013.88
2023-04-18T07:55:35.665Z,1013.97
2023-04-18T07:56:35.620Z,1013.90
2023-04-18T07:57:35.622Z,1013.95
2023-04-18T07:58:35.607Z,1013.95
2023-04-18T07:59:35.590Z,1013.86
2023-04-18T08:00:35.573Z,1013.97
2023-04-18T08:01:35.571Z,1013.86
2023-04-18T08:02:35.625Z,1013.91
2023-04-18T08:03:35.629Z,1013.92
2023-04-18T08:04:35.780Z,1013.91
2023-04-18T08:05:35.532Z,1014.03
2023-04-18T08:06:35.549Z,1013.92
2023-04-18T08:07:35.480Z,1013.97
2023-04-18T08:08:35.477Z,1013.94
2023-04-18T08:09:35.453Z,1013.93
2023-04-18T08:10:35.454Z,1013.92
2023-04-18T08:11:35.457Z,1013.98
2023-04-18T08:12:35.423Z,1014.00
2023-04-18T08:13:35.417Z,1013.97
2023-04-18T08:14:35.483Z,1014.02
2023-04-18T08:15:35.375Z,1013.98
2023-04-18T08:16:35.402Z,1013.97
2023-04-18T08:17:35.383Z,1014.01
2023-04-18T08:18:35.331Z,1013.95
2023-04-18T08:19:35.317Z,1014.01
2023-04-18T08:20:35.310Z,1013.98
2023-04-18T08:21:35.293Z,1014.01
2023-04-18T08:22:38.931Z,1013.97
2023-04-18T08:23:36.301Z,1013.98
2023-04-18T08:24:35.263Z,1014.00
2023-04-18T08:25:35.288Z,1014.01
2023-04-18T08:26:35.224Z,1013.98
2023-04-18T08:27:35.222Z,1014.07
2023-04-18T08:28:35.239Z,1014.02
2023-04-18T08:29:35.200Z,1013.96
2023-04-18T08:30:35.177Z,1014.06
2023-04-18T08:31:35.224Z,1013.99
2023-04-18T08:32:35.184Z,1013.98
2023-04-18T08:33:35.163Z,1013.98
2023-04-18T08:34:35.150Z,1014.06
2023-04-18T08:35:35.108Z,1014.04
2023-04-18T08:36:35.093Z,1014.01
2023-04-18T08:37:35.083Z,1013.98
2023-04-18T08:38:35.095Z,1014.05
2023-04-18T08:39:35.112Z,1014.05
2023-04-18T08:40:35.056Z,1014.10
2023-04-18T08:41:35.032Z,1014.07
2023-04-18T08:42:35.018Z,1014.07
2023-04-18T08:43:35.016Z,1014.10
2023-04-18T08:44:34.996Z,1014.08
2023-04-18T08:45:35.052Z,1014.05
2023-04-18T08:46:34.967Z,1014.06
2023-04-18T08:47:34.976Z,1014.12
2023-04-18T08:48:34.943Z,1014.10
2023-04-18T08:49:34.926Z,1014.16
2023-04-18T08:50:34.922Z,1014.06
2023-04-18T08:51:34.919Z,1014.10
2023-04-18T08:52:34.918Z,1014.17
2023-04-18T08:53:34.876Z,1014.10
2023-04-18T08:54:34.855Z,1014.09
2023-04-18T08:55:35.037Z,1014.13
2023-04-18T08:56:34.867Z,1014.12
2023-04-18T08:57:34.844Z,1014.16
2023-04-18T08:58:34.987Z,1014.13
2023-04-18T08:59:34.786Z,1014.13
2023-04-18T09:00:34.766Z,1014.11
2023-04-18T09:01:34.810Z,1014.12
2023-04-18T09:02:34.983Z,1014.10
2023-04-18T09:03:34.844Z,1014.12
2023-04-18T09:04:34.737Z,1014.16
2023-04-18T09:05:34.699Z,1014.16
2023-04-18T09:06:34.723Z,1014.12
2023-04-18T09:07:34.681Z,1014.09
2023-04-18T09:08:34.669Z,1014.15
2023-04-18T09:09:34.645Z,1014.13
2023-04-18T09:10:34.640Z,1014.22
2023-04-18T09:11:34.676Z,1014.20
2023-04-18T09:12:34.702Z,1014.27
2023-04-18T09:13:34.600Z,1014.20
2023-04-18T09:14:34.586Z,1014.24
2023-04-18T09:15:34.597Z,1014.19
2023-04-18T09:16:34.633Z,1014.25
2023-04-18T09:17:34.722Z,1014.16
2023-04-18T09:18:34.536Z,1014.24
2023-04-18T09:19:34.516Z,1014.25
2023-04-18T09:20:34.671Z,1014.21
2023-04-18T09:21:34.486Z,1014.25
2023-04-18T09:22:34.500Z,1014.24
2023-04-18T09:23:34.475Z,1014.21
2023-04-18T09:24:34.490Z,1014.21
2023-04-18T09:25:34.491Z,1014.23
2023-04-18T09:26:34.450Z,1014.28
2023-04-18T09:27:34.434Z,1014.20
2023-04-18T09:28:34.554Z,1014.22
2023-04-18T09:29:34.411Z,1014.16
2023-04-18T09:30:34.421Z,1014.18
2023-04-18T09:31:34.391Z,1014.27
2023-04-18T09:32:34.403Z,1014.26
2023-04-18T09:33:34.532Z,1014.19
2023-04-18T09:34:34.335Z,1014.29
2023-04-18T09:35:34.305Z,1014.26
2023-04-18T09:36:34.310Z,1014.23
2023-04-18T09:37:34.285Z,1014.14
2023-04-18T09:38:34.314Z,1014.15
2023-04-18T09:39:34.271Z,1014.19
2023-04-18T09:40:34.255Z,1014.15
2023-04-18T09:41:34.239Z,1014.17
2023-04-18T09:42:34.222Z,1014.17
2023-04-18T09:43:34.211Z,1014.27
2023-04-18T09:44:34.207Z,1014.17
2023-04-18T09:45:34.176Z,1014.14
2023-04-18T09:46:34.229Z,1014.10
2023-04-18T09:47:34.196Z,1014.03
2023-04-18T09:48:34.139Z,1014.03
2023-04-18T09:49:34.152Z,1014.07
2023-04-18T09:50:34.148Z,1014.03
2023-04-18T09:51:34.105Z,1014.04
2023-04-18T09:52:34.117Z,1014.04
2023-04-18T09:53:34.098Z,1014.00
2023-04-18T09:54:34.073Z,1014.02
2023-04-18T09:55:34.079Z,1014.03
2023-04-18T09:56:34.042Z,1013.98
2023-04-18T09:57:34.029Z,1014.06
2023-04-18T09:58:34.027Z,1014.01
2023-04-18T09:59:34.032Z,1014.01
2023-04-18T10:00:34.001Z,1013.99
2023-04-18T10:01:33.990Z,1013.87
2023-04-18T10:02:33.986Z,1013.95
2023-04-18T10:03:34.017Z,1013.93
2023-04-18T10:04:34.030Z,1013.96
2023-04-18T10:05:34.020Z,1013.96
2023-04-18T10:06:33.962Z,1014.02
2023-04-18T10:07:33.904Z,1014.00
2023-04-18T10:08:33.912Z,1014.03
2023-04-18T10:09:33.871Z,1014.03
2023-04-18T10:10:33.909Z,1013.97
2023-04-18T10:11:33.866Z,1013.98
2023-04-18T10:12:33.830Z,1013.95
2023-04-18T10:13:33.851Z,1013.93
2023-04-18T10:14:33.811Z,1014.00
2023-04-18T10:15:33.821Z,1013.98
2023-04-18T10:16:34.961Z,1014.05
2023-04-18T10:17:33.802Z,1014.04
2023-04-18T10:18:33.813Z,1013.94
2023-04-18T10:19:33.755Z,1014.10
2023-04-18T10:20:33.792Z,1013.94
2023-04-18T10:21:33.740Z,1013.96
2023-04-18T10:22:33.723Z,1013.91
2023-04-18T10:23:33.684Z,1013.98
2023-04-18T10:24:33.671Z,1013.90
2023-04-18T10:25:33.671Z,1013.89
2023-04-18T10:26:33.651Z,1013.87
2023-04-18T10:27:33.667Z,1013.87
2023-04-18T10:28:33.617Z,1013.90
2023-04-18T10:29:33.619Z,1013.90
2023-04-18T10:30:33.596Z,1013.89
2023-04-18T10:31:33.598Z,1013.89
2023-04-18T10:32:33.609Z,1013.84
2023-04-18T10:33:33.946Z,1013.88
2023-04-18T10:34:33.541Z,1013.85
2023-04-18T10:35:33.528Z,1013.86
2023-04-18T10:36:33.523Z,1013.97
2023-04-18T10:37:33.631Z,1013.87
2023-04-18T10:38:33.503Z,1013.83
2023-04-18T10:39:33.484Z,1013.86
2023-04-18T10:40:33.552Z,1013.93
2023-04-18T10:41:33.472Z,1013.90
2023-04-18T10:42:33.470Z,1013.84
2023-04-18T10:43:33.424Z,1013.79
2023-04-18T10:44:33.441Z,1013.81
2023-04-18T10:45:33.409Z,1013.72
2023-04-18T10:46:33.431Z,1013.69
2023-04-18T10:47:33.666Z,1013.69
2023-04-18T10:48:33.366Z,1013.69
2023-04-18T10:49:33.360Z,1013.73
2023-04-18T10:50:33.366Z,1013.68
2023-04-18T10:51:33.337Z,1013.76
2023-04-18T10:52:33.310Z,1013.69
2023-04-18T10:53:33.324Z,1013.82
2023-04-18T10:54:33.318Z,1013.67
2023-04-18T10:55:33.294Z,1013.65
2023-04-18T10:56:33.267Z,1013.71
2023-04-18T10:57:33.271Z,1013.64
2023-04-18T10:58:33.243Z,1013.68
2023-04-18T10:59:33.259Z,1013.74
2023-04-18T11:00:33.242Z,1013.74
2023-04-18T11:01:33.394Z,1013.66
2023-04-18T11:02:33.380Z,1013.66
2023-04-18T11:03:33.252Z,1013.69
2023-04-18T11:04:33.292Z,1013.59
2023-04-18T11:05:33.288Z,1013.69
2023-04-18T11:06:33.166Z,1013.69
2023-04-18T11:07:33.118Z,1013.72
2023-04-18T11:08:33.095Z,1013.58
2023-04-18T11:09:33.128Z,1013.60
2023-04-18T11:10:33.070Z,1013.61
2023-04-18T11:11:33.079Z,1013.69
2023-04-18T11:12:33.057Z,1013.68
2023-04-18T11:13:33.044Z,1013.57
2023-04-18T11:14:33.025Z,1013.73
2023-04-18T11:15:33.041Z,1013.70
2023-04-18T11:16:33.034Z,1013.70
2023-04-18T11:17:33.054Z,1013.65
2023-04-18T11:18:32.971Z,1013.62
2023-04-18T11:19:32.952Z,1013.59
2023-04-18T11:20:32.945Z,1013.62
2023-04-18T11:21:32.931Z,1013.54
2023-04-18T11:22:32.970Z,1013.53
2023-04-18T11:23:32.910Z,1013.60
2023-04-18T11:24:32.897Z,1013.65
2023-04-18T11:25:32.962Z,1013.59
2023-04-18T11:26:32.882Z,1013.64
2023-04-18T11:27:32.862Z,1013.66
2023-04-18T11:28:32.872Z,1013.68
2023-04-18T11:29:32.820Z,1013.57
2023-04-18T11:30:32.949Z,1013.66
2023-04-18T11:31:32.933Z,1013.52
2023-04-18T11:32:32.901Z,1013.52
2023-04-18T11:33:32.821Z,1013.47
2023-04-18T11:34:32.783Z,1013.51
2023-04-18T11:35:32.748Z,1013.47
2023-04-18T11:36:32.764Z,1013.49
2023-04-18T11:37:32.740Z,1013.38
2023-04-18T11:38:32.754Z,1013.57
2023-04-18T11:39:32.695Z,1013.40
2023-04-18T11:40:32.758Z,1013.43
2023-04-18T11:41:32.678Z,1013.41
2023-04-18T11:42:32.660Z,1013.46
2023-04-18T11:43:32.672Z,1013.45
2023-04-18T11:44:34.938Z,1013.49
2023-04-18T11:45:32.693Z,1013.52
2023-04-18T11:46:32.657Z,1013.52
2023-04-18T11:47:32.623Z,1013.54
2023-04-18T11:48:32.583Z,1013.48
2023-04-18T11:49:32.568Z,1013.56
2023-04-18T11:50:32.574Z,1013.47
2023-04-18T11:51:32.546Z,1013.41
2023-04-18T11:52:32.528Z,1013.47
2023-04-18T11:53:32.514Z,1013.46
2023-04-18T11:54:32.515Z,1013.54
2023-04-18T11:55:32.502Z,1013.47
2023-04-18T11:56:34.602Z,1013.60
2023-04-18T11:57:32.478Z,1013.48
2023-04-18T11:58:32.452Z,1013.50
2023-04-18T11:59:32.438Z,1013.58
2023-04-18T12:00:32.442Z,1013.54
2023-04-18T12:01:32.410Z,1013.54
2023-04-18T12:02:32.521Z,1013.55
2023-04-18T12:03:32.598Z,1013.53
2023-04-18T12:04:32.571Z,1013.52
2023-04-18T12:05:32.784Z,1013.44